sensor_id;sensor_type;location;lat;lon;timestamp;P1;durP1;ratioP1;P2;durP2;ratioP2
9485;SDS011;4781;48.776;9.200;2023-10-19T00:00:38;4.75;;;2.37;;
9485;SDS011;4781;48.776;9.200;2023-10-19T00:03:08;6.45;;;3.30;;
9485;SDS011;4781;48.776;9.200;2023-10-19T00:05:38;6.50;;;2.37;;
9485;SDS011;4781;48.776;9.200;2023-10-19T00:08:08;4.55;;;2.72;;
9485;SDS011;4781;48.776;9.200;2023-10-19T00:10:40;4.87;;;2.77;;
9485;SDS011;4781;48.776;9.200;2023-10-19T00:13:11;6.65;;;2.58;;
9485;SDS011;4781;48.776;9.200;2023-10-19T00:15:42;4.90;;;2.33;;
9485;SDS011;4781;48.776;9.200;2023-10-19T00:18:15;7.37;;;2.40;;
9485;SDS011;4781;48.776;9.200;2023-10-19T00:20:44;3.80;;;2.02;;
9485;SDS011;4781;48.776;9.200;2023-10-19T00:23:16;4.45;;;2.10;;
9485;SDS011;4781;48.776;9.200;2023-10-19T00:25:48;4.35;;;2.02;;
9485;SDS011;4781;48.776;9.200;2023-10-19T00:28:20;4.97;;;2.42;;
9485;SDS011;4781;48.776;9.200;2023-10-19T00:30:50;4.60;;;2.08;;
9485;SDS011;4781;48.776;9.200;2023-10-19T00:33:19;3.10;;;1.45;;
9485;SDS011;4781;48.776;9.200;2023-10-19T00:35:49;5.50;;;2.20;;
9485;SDS011;4781;48.776;9.200;2023-10-19T00:38:25;3.98;;;1.90;;
9485;SDS011;4781;48.776;9.200;2023-10-19T00:40:55;3.70;;;1.40;;
9485;SDS011;4781;48.776;9.200;2023-10-19T00:43:29;4.87;;;1.80;;
9485;SDS011;4781;48.776;9.200;2023-10-19T00:46:00;2.92;;;1.30;;
9485;SDS011;4781;48.776;9.200;2023-10-19T00:48:37;3.27;;;1.52;;
9485;SDS011;4781;48.776;9.200;2023-10-19T00:51:06;3.45;;;1.80;;
9485;SDS011;4781;48.776;9.200;2023-10-19T00:53:39;4.17;;;2.10;;
9485;SDS011;4781;48.776;9.200;2023-10-19T00:56:08;3.20;;;1.47;;
9485;SDS011;4781;48.776;9.200;2023-10-19T00:58:37;3.25;;;2.00;;
9485;SDS011;4781;48.776;9.200;2023-10-19T01:01:07;3.30;;;1.82;;
9485;SDS011;4781;48.776;9.200;2023-10-19T01:03:35;2.83;;;1.52;;
9485;SDS011;4781;48.776;9.200;2023-10-19T01:06:04;2.45;;;1.30;;
9485;SDS011;4781;48.776;9.200;2023-10-19T01:08:34;3.85;;;1.92;;
9485;SDS011;4781;48.776;9.200;2023-10-19T01:11:08;2.00;;;1.02;;
9485;SDS011;4781;48.776;9.200;2023-10-19T01:13:39;3.65;;;2.22;;
9485;SDS011;4781;48.776;9.200;2023-10-19T01:16:13;3.47;;;1.65;;
9485;SDS011;4781;48.776;9.200;2023-10-19T01:18:44;3.25;;;1.45;;
9485;SDS011;4781;48.776;9.200;2023-10-19T01:21:13;3.40;;;1.67;;
9485;SDS011;4781;48.776;9.200;2023-10-19T01:23:43;3.05;;;1.47;;
9485;SDS011;4781;48.776;9.200;2023-10-19T01:26:12;2.72;;;1.42;;
9485;SDS011;4781;48.776;9.200;2023-10-19T01:28:42;2.98;;;1.07;;
9485;SDS011;4781;48.776;9.200;2023-10-19T01:31:13;2.95;;;1.50;;
9485;SDS011;4781;48.776;9.200;2023-10-19T01:33:45;3.72;;;1.62;;
9485;SDS011;4781;48.776;9.200;2023-10-19T01:36:14;3.20;;;1.92;;
9485;SDS011;4781;48.776;9.200;2023-10-19T01:38:48;2.80;;;1.27;;
9485;SDS011;4781;48.776;9.200;2023-10-19T01:41:22;5.70;;;1.30;;
9485;SDS011;4781;48.776;9.200;2023-10-19T01:43:52;2.92;;;1.47;;
9485;SDS011;4781;48.776;9.200;2023-10-19T01:46:23;3.70;;;1.70;;
9485;SDS011;4781;48.776;9.200;2023-10-19T01:48:53;2.27;;;1.12;;
9485;SDS011;4781;48.776;9.200;2023-10-19T01:51:25;3.12;;;1.50;;
9485;SDS011;4781;48.776;9.200;2023-10-19T01:53:55;1.98;;;1.10;;
9485;SDS011;4781;48.776;9.200;2023-10-19T01:56:24;3.15;;;1.70;;
9485;SDS011;4781;48.776;9.200;2023-10-19T01:58:53;3.87;;;1.85;;
9485;SDS011;4781;48.776;9.200;2023-10-19T02:01:23;3.15;;;1.37;;
9485;SDS011;4781;48.776;9.200;2023-10-19T02:03:55;3.45;;;1.67;;
9485;SDS011;4781;48.776;9.200;2023-10-19T02:06:27;3.60;;;1.77;;
9485;SDS011;4781;48.776;9.200;2023-10-19T02:09:05;3.07;;;1.87;;
9485;SDS011;4781;48.776;9.200;2023-10-19T02:11:57;4.50;;;2.12;;
9485;SDS011;4781;48.776;9.200;2023-10-19T02:14:23;4.30;;;2.33;;
9485;SDS011;4781;48.776;9.200;2023-10-19T02:16:55;4.53;;;2.00;;
9485;SDS011;4781;48.776;9.200;2023-10-19T02:19:26;4.92;;;2.27;;
9485;SDS011;4781;48.776;9.200;2023-10-19T02:22:02;5.55;;;2.85;;
9485;SDS011;4781;48.776;9.200;2023-10-19T02:24:36;4.90;;;2.22;;
9485;SDS011;4781;48.776;9.200;2023-10-19T02:27:05;7.00;;;2.83;;
9485;SDS011;4781;48.776;9.200;2023-10-19T02:29:34;5.72;;;2.65;;
9485;SDS011;4781;48.776;9.200;2023-10-19T02:32:04;5.40;;;2.67;;
9485;SDS011;4781;48.776;9.200;2023-10-19T02:34:33;4.83;;;2.70;;
9485;SDS011;4781;48.776;9.200;2023-10-19T02:37:01;4.80;;;2.55;;
9485;SDS011;4781;48.776;9.200;2023-10-19T02:39:30;5.28;;;2.20;;
9485;SDS011;4781;48.776;9.200;2023-10-19T02:41:58;4.80;;;2.17;;
9485;SDS011;4781;48.776;9.200;2023-10-19T02:44:28;6.95;;;2.85;;
9485;SDS011;4781;48.776;9.200;2023-10-19T02:46:56;4.75;;;2.33;;
9485;SDS011;4781;48.776;9.200;2023-10-19T02:49:25;5.47;;;2.85;;
9485;SDS011;4781;48.776;9.200;2023-10-19T02:51:55;6.92;;;2.95;;
9485;SDS011;4781;48.776;9.200;2023-10-19T02:54:30;4.25;;;2.08;;
9485;SDS011;4781;48.776;9.200;2023-10-19T02:57:02;5.67;;;1.95;;
9485;SDS011;4781;48.776;9.200;2023-10-19T02:59:35;3.92;;;2.00;;
9485;SDS011;4781;48.776;9.200;2023-10-19T03:02:04;3.87;;;2.02;;
9485;SDS011;4781;48.776;9.200;2023-10-19T03:04:39;6.80;;;2.65;;
9485;SDS011;4781;48.776;9.200;2023-10-19T03:07:08;3.02;;;2.00;;
9485;SDS011;4781;48.776;9.200;2023-10-19T03:09:39;5.22;;;1.77;;
9485;SDS011;4781;48.776;9.200;2023-10-19T03:12:09;3.77;;;1.50;;
9485;SDS011;4781;48.776;9.200;2023-10-19T03:14:39;3.02;;;1.80;;
9485;SDS011;4781;48.776;9.200;2023-10-19T03:17:12;2.47;;;1.20;;
9485;SDS011;4781;48.776;9.200;2023-10-19T03:19:41;1.90;;;1.10;;
9485;SDS011;4781;48.776;9.200;2023-10-19T03:22:09;2.85;;;1.30;;
9485;SDS011;4781;48.776;9.200;2023-10-19T03:24:38;1.65;;;0.90;;
9485;SDS011;4781;48.776;9.200;2023-10-19T03:27:13;2.05;;;1.10;;
9485;SDS011;4781;48.776;9.200;2023-10-19T03:29:46;1.77;;;0.95;;
9485;SDS011;4781;48.776;9.200;2023-10-19T03:32:22;3.47;;;1.20;;
9485;SDS011;4781;48.776;9.200;2023-10-19T03:34:57;1.82;;;0.90;;
9485;SDS011;4781;48.776;9.200;2023-10-19T03:37:26;1.47;;;0.95;;
9485;SDS011;4781;48.776;9.200;2023-10-19T03:39:59;2.62;;;1.45;;
9485;SDS011;4781;48.776;9.200;2023-10-19T03:42:32;1.77;;;1.30;;
9485;SDS011;4781;48.776;9.200;2023-10-19T03:45:02;2.67;;;1.20;;
9485;SDS011;4781;48.776;9.200;2023-10-19T03:47:33;4.72;;;1.07;;
9485;SDS011;4781;48.776;9.200;2023-10-19T03:50:02;2.12;;;1.00;;
9485;SDS011;4781;48.776;9.200;2023-10-19T03:52:35;2.20;;;1.20;;
9485;SDS011;4781;48.776;9.200;2023-10-19T03:55:04;3.98;;;1.00;;
9485;SDS011;4781;48.776;9.200;2023-10-19T03:57:35;1.55;;;0.70;;
9485;SDS011;4781;48.776;9.200;2023-10-19T04:00:05;1.30;;;0.75;;
9485;SDS011;4781;48.776;9.200;2023-10-19T04:02:39;1.42;;;0.75;;
9485;SDS011;4781;48.776;9.200;2023-10-19T04:05:08;2.83;;;0.82;;
9485;SDS011;4781;48.776;9.200;2023-10-19T04:07:38;1.98;;;0.90;;
9485;SDS011;4781;48.776;9.200;2023-10-19T04:10:07;1.77;;;0.90;;
9485;SDS011;4781;48.776;9.200;2023-10-19T04:12:39;2.45;;;1.12;;
9485;SDS011;4781;48.776;9.200;2023-10-19T04:15:10;1.40;;;0.90;;
9485;SDS011;4781;48.776;9.200;2023-10-19T04:17:40;1.50;;;0.90;;
9485;SDS011;4781;48.776;9.200;2023-10-19T04:20:11;1.98;;;0.90;;
9485;SDS011;4781;48.776;9.200;2023-10-19T04:22:44;2.58;;;1.20;;
9485;SDS011;4781;48.776;9.200;2023-10-19T04:25:15;1.92;;;1.00;;
9485;SDS011;4781;48.776;9.200;2023-10-19T04:27:55;4.40;;;1.35;;
9485;SDS011;4781;48.776;9.200;2023-10-19T04:30:23;3.98;;;1.32;;
9485;SDS011;4781;48.776;9.200;2023-10-19T04:32:52;1.82;;;1.17;;
9485;SDS011;4781;48.776;9.200;2023-10-19T04:35:22;3.20;;;1.40;;
9485;SDS011;4781;48.776;9.200;2023-10-19T04:37:52;3.27;;;1.55;;
9485;SDS011;4781;48.776;9.200;2023-10-19T04:40:22;2.15;;;1.35;;
9485;SDS011;4781;48.776;9.200;2023-10-19T04:42:52;2.15;;;1.00;;
9485;SDS011;4781;48.776;9.200;2023-10-19T04:45:21;5.00;;;1.32;;
9485;SDS011;4781;48.776;9.200;2023-10-19T04:47:50;4.25;;;1.65;;
9485;SDS011;4781;48.776;9.200;2023-10-19T04:50:19;2.05;;;1.12;;
9485;SDS011;4781;48.776;9.200;2023-10-19T04:52:47;2.60;;;1.52;;
9485;SDS011;4781;48.776;9.200;2023-10-19T04:55:16;2.27;;;1.32;;
9485;SDS011;4781;48.776;9.200;2023-10-19T04:57:44;2.75;;;1.15;;
9485;SDS011;4781;48.776;9.200;2023-10-19T05:00:13;1.97;;;1.20;;
9485;SDS011;4781;48.776;9.200;2023-10-19T05:02:42;3.55;;;1.22;;
9485;SDS011;4781;48.776;9.200;2023-10-19T05:05:10;2.10;;;1.10;;
9485;SDS011;4781;48.776;9.200;2023-10-19T05:07:40;2.17;;;1.05;;
9485;SDS011;4781;48.776;9.200;2023-10-19T05:10:09;3.33;;;1.25;;
9485;SDS011;4781;48.776;9.200;2023-10-19T05:12:38;2.22;;;1.17;;
9485;SDS011;4781;48.776;9.200;2023-10-19T05:15:06;2.42;;;1.17;;
9485;SDS011;4781;48.776;9.200;2023-10-19T05:17:35;2.35;;;1.17;;
9485;SDS011;4781;48.776;9.200;2023-10-19T05:20:04;1.30;;;0.65;;
9485;SDS011;4781;48.776;9.200;2023-10-19T05:22:34;1.42;;;0.78;;
9485;SDS011;4781;48.776;9.200;2023-10-19T05:25:05;2.72;;;1.00;;
9485;SDS011;4781;48.776;9.200;2023-10-19T05:27:35;2.17;;;1.12;;
9485;SDS011;4781;48.776;9.200;2023-10-19T05:30:05;1.87;;;1.20;;
9485;SDS011;4781;48.776;9.200;2023-10-19T05:32:36;2.15;;;1.05;;
9485;SDS011;4781;48.776;9.200;2023-10-19T05:35:05;2.67;;;1.27;;
9485;SDS011;4781;48.776;9.200;2023-10-19T05:37:33;2.33;;;1.42;;
9485;SDS011;4781;48.776;9.200;2023-10-19T05:40:02;3.67;;;1.70;;
9485;SDS011;4781;48.776;9.200;2023-10-19T05:42:33;2.98;;;1.45;;
9485;SDS011;4781;48.776;9.200;2023-10-19T05:45:01;2.58;;;1.30;;
9485;SDS011;4781;48.776;9.200;2023-10-19T05:47:31;2.25;;;1.25;;
9485;SDS011;4781;48.776;9.200;2023-10-19T05:50:00;2.20;;;1.12;;
9485;SDS011;4781;48.776;9.200;2023-10-19T05:52:30;2.62;;;1.12;;
9485;SDS011;4781;48.776;9.200;2023-10-19T05:54:58;2.75;;;1.50;;
9485;SDS011;4781;48.776;9.200;2023-10-19T05:57:27;5.85;;;2.05;;
9485;SDS011;4781;48.776;9.200;2023-10-19T05:59:55;3.67;;;1.80;;
9485;SDS011;4781;48.776;9.200;2023-10-19T06:02:24;3.02;;;1.70;;
9485;SDS011;4781;48.776;9.200;2023-10-19T06:04:52;3.98;;;1.82;;
9485;SDS011;4781;48.776;9.200;2023-10-19T06:07:22;3.52;;;2.00;;
9485;SDS011;4781;48.776;9.200;2023-10-19T06:09:51;2.15;;;1.22;;
9485;SDS011;4781;48.776;9.200;2023-10-19T06:12:19;3.98;;;1.62;;
9485;SDS011;4781;48.776;9.200;2023-10-19T06:14:47;3.00;;;1.62;;
9485;SDS011;4781;48.776;9.200;2023-10-19T06:17:16;3.22;;;1.45;;
9485;SDS011;4781;48.776;9.200;2023-10-19T06:19:45;2.90;;;1.60;;
9485;SDS011;4781;48.776;9.200;2023-10-19T06:22:13;2.87;;;1.47;;
9485;SDS011;4781;48.776;9.200;2023-10-19T06:24:44;3.25;;;1.60;;
9485;SDS011;4781;48.776;9.200;2023-10-19T06:27:12;2.37;;;1.30;;
9485;SDS011;4781;48.776;9.200;2023-10-19T06:29:41;2.27;;;1.30;;
9485;SDS011;4781;48.776;9.200;2023-10-19T06:32:09;4.23;;;1.83;;
9485;SDS011;4781;48.776;9.200;2023-10-19T06:34:38;3.35;;;1.20;;
9485;SDS011;4781;48.776;9.200;2023-10-19T06:37:07;6.00;;;2.25;;
9485;SDS011;4781;48.776;9.200;2023-10-19T06:39:37;4.42;;;2.27;;
9485;SDS011;4781;48.776;9.200;2023-10-19T06:42:08;2.90;;;1.62;;
9485;SDS011;4781;48.776;9.200;2023-10-19T06:44:38;4.22;;;1.70;;
9485;SDS011;4781;48.776;9.200;2023-10-19T06:47:11;2.80;;;1.72;;
9485;SDS011;4781;48.776;9.200;2023-10-19T06:49:39;2.77;;;1.57;;
9485;SDS011;4781;48.776;9.200;2023-10-19T06:52:08;3.90;;;1.60;;
9485;SDS011;4781;48.776;9.200;2023-10-19T06:54:37;4.08;;;2.05;;
9485;SDS011;4781;48.776;9.200;2023-10-19T06:57:05;5.55;;;1.87;;
9485;SDS011;4781;48.776;9.200;2023-10-19T06:59:36;3.58;;;1.80;;
9485;SDS011;4781;48.776;9.200;2023-10-19T07:02:25;4.33;;;1.90;;
9485;SDS011;4781;48.776;9.200;2023-10-19T07:04:54;2.58;;;1.57;;
9485;SDS011;4781;48.776;9.200;2023-10-19T07:07:23;2.55;;;1.50;;
9485;SDS011;4781;48.776;9.200;2023-10-19T07:09:51;4.03;;;1.80;;
9485;SDS011;4781;48.776;9.200;2023-10-19T07:12:20;4.05;;;1.77;;
9485;SDS011;4781;48.776;9.200;2023-10-19T07:14:49;2.90;;;1.37;;
9485;SDS011;4781;48.776;9.200;2023-10-19T07:17:17;2.42;;;1.22;;
9485;SDS011;4781;48.776;9.200;2023-10-19T07:19:45;3.45;;;1.50;;
9485;SDS011;4781;48.776;9.200;2023-10-19T07:22:14;2.25;;;1.42;;
9485;SDS011;4781;48.776;9.200;2023-10-19T07:24:42;2.62;;;1.35;;
9485;SDS011;4781;48.776;9.200;2023-10-19T07:27:11;2.25;;;1.35;;
9485;SDS011;4781;48.776;9.200;2023-10-19T07:29:41;3.75;;;1.72;;
9485;SDS011;4781;48.776;9.200;2023-10-19T07:32:09;3.35;;;1.40;;
9485;SDS011;4781;48.776;9.200;2023-10-19T07:34:39;1.92;;;1.10;;
9485;SDS011;4781;48.776;9.200;2023-10-19T07:37:08;2.35;;;1.30;;
9485;SDS011;4781;48.776;9.200;2023-10-19T07:39:39;4.25;;;1.15;;
9485;SDS011;4781;48.776;9.200;2023-10-19T07:42:13;2.83;;;1.67;;
9485;SDS011;4781;48.776;9.200;2023-10-19T07:44:43;2.87;;;1.30;;
9485;SDS011;4781;48.776;9.200;2023-10-19T07:47:11;2.95;;;1.20;;
9485;SDS011;4781;48.776;9.200;2023-10-19T07:49:40;3.92;;;1.37;;
9485;SDS011;4781;48.776;9.200;2023-10-19T07:52:09;2.62;;;1.40;;
9485;SDS011;4781;48.776;9.200;2023-10-19T07:54:37;3.45;;;1.57;;
9485;SDS011;4781;48.776;9.200;2023-10-19T07:57:06;5.83;;;2.17;;
9485;SDS011;4781;48.776;9.200;2023-10-19T07:59:34;3.65;;;2.05;;
9485;SDS011;4781;48.776;9.200;2023-10-19T08:02:03;3.33;;;1.87;;
9485;SDS011;4781;48.776;9.200;2023-10-19T08:04:33;3.75;;;2.33;;
9485;SDS011;4781;48.776;9.200;2023-10-19T08:07:02;6.17;;;2.30;;
9485;SDS011;4781;48.776;9.200;2023-10-19T08:09:30;5.95;;;2.98;;
9485;SDS011;4781;48.776;9.200;2023-10-19T08:12:00;8.48;;;2.90;;
9485;SDS011;4781;48.776;9.200;2023-10-19T08:14:30;5.22;;;2.98;;
9485;SDS011;4781;48.776;9.200;2023-10-19T08:16:59;4.40;;;2.47;;
9485;SDS011;4781;48.776;9.200;2023-10-19T08:19:27;4.83;;;2.20;;
9485;SDS011;4781;48.776;9.200;2023-10-19T08:21:57;5.17;;;2.85;;
9485;SDS011;4781;48.776;9.200;2023-10-19T08:24:26;8.68;;;3.35;;
9485;SDS011;4781;48.776;9.200;2023-10-19T08:26:56;3.77;;;2.30;;
9485;SDS011;4781;48.776;9.200;2023-10-19T08:29:25;7.62;;;4.05;;
9485;SDS011;4781;48.776;9.200;2023-10-19T08:31:55;6.25;;;3.95;;
9485;SDS011;4781;48.776;9.200;2023-10-19T08:34:25;4.95;;;2.55;;
9485;SDS011;4781;48.776;9.200;2023-10-19T08:36:55;6.85;;;2.75;;
9485;SDS011;4781;48.776;9.200;2023-10-19T08:39:23;4.90;;;2.83;;
9485;SDS011;4781;48.776;9.200;2023-10-19T08:41:52;6.47;;;3.17;;
9485;SDS011;4781;48.776;9.200;2023-10-19T08:44:21;6.67;;;3.60;;
9485;SDS011;4781;48.776;9.200;2023-10-19T08:46:51;10.23;;;4.45;;
9485;SDS011;4781;48.776;9.200;2023-10-19T08:49:19;7.67;;;3.98;;
9485;SDS011;4781;48.776;9.200;2023-10-19T08:51:48;7.58;;;4.10;;
9485;SDS011;4781;48.776;9.200;2023-10-19T08:54:18;7.10;;;3.72;;
9485;SDS011;4781;48.776;9.200;2023-10-19T08:56:47;7.05;;;3.47;;
9485;SDS011;4781;48.776;9.200;2023-10-19T08:59:15;7.97;;;4.05;;
9485;SDS011;4781;48.776;9.200;2023-10-19T09:01:44;7.67;;;4.08;;
9485;SDS011;4781;48.776;9.200;2023-10-19T09:04:12;6.12;;;3.40;;
9485;SDS011;4781;48.776;9.200;2023-10-19T09:06:42;9.53;;;4.15;;
9485;SDS011;4781;48.776;9.200;2023-10-19T09:09:11;5.72;;;2.17;;
9485;SDS011;4781;48.776;9.200;2023-10-19T09:11:45;4.87;;;2.60;;
9485;SDS011;4781;48.776;9.200;2023-10-19T09:14:14;5.78;;;2.42;;
9485;SDS011;4781;48.776;9.200;2023-10-19T09:16:53;4.03;;;2.40;;
9485;SDS011;4781;48.776;9.200;2023-10-19T09:19:35;7.50;;;2.20;;
9485;SDS011;4781;48.776;9.200;2023-10-19T09:22:09;2.62;;;1.20;;
9485;SDS011;4781;48.776;9.200;2023-10-19T09:24:48;5.05;;;2.27;;
9485;SDS011;4781;48.776;9.200;2023-10-19T09:27:20;3.27;;;1.52;;
9485;SDS011;4781;48.776;9.200;2023-10-19T09:29:49;3.65;;;1.20;;
9485;SDS011;4781;48.776;9.200;2023-10-19T09:32:17;3.50;;;1.70;;
9485;SDS011;4781;48.776;9.200;2023-10-19T09:34:45;2.87;;;1.12;;
9485;SDS011;4781;48.776;9.200;2023-10-19T09:37:14;6.00;;;2.95;;
9485;SDS011;4781;48.776;9.200;2023-10-19T09:39:44;6.83;;;3.05;;
9485;SDS011;4781;48.776;9.200;2023-10-19T09:42:12;4.45;;;2.47;;
9485;SDS011;4781;48.776;9.200;2023-10-19T09:44:44;4.67;;;2.40;;
9485;SDS011;4781;48.776;9.200;2023-10-19T09:47:16;5.80;;;2.37;;
9485;SDS011;4781;48.776;9.200;2023-10-19T09:50:01;5.15;;;2.92;;
9485;SDS011;4781;48.776;9.200;2023-10-19T09:52:31;4.20;;;2.35;;
9485;SDS011;4781;48.776;9.200;2023-10-19T09:55:12;3.85;;;2.35;;
9485;SDS011;4781;48.776;9.200;2023-10-19T10:00:33;5.85;;;2.60;;
9485;SDS011;4781;48.776;9.200;2023-10-19T10:03:02;5.20;;;2.45;;
9485;SDS011;4781;48.776;9.200;2023-10-19T10:10:55;2.98;;;1.47;;
9485;SDS011;4781;48.776;9.200;2023-10-19T10:16:02;3.12;;;1.60;;
9485;SDS011;4781;48.776;9.200;2023-10-19T10:18:31;3.22;;;1.27;;
9485;SDS011;4781;48.776;9.200;2023-10-19T10:21:08;3.37;;;1.12;;
9485;SDS011;4781;48.776;9.200;2023-10-19T10:23:50;2.50;;;0.95;;
9485;SDS011;4781;48.776;9.200;2023-10-19T10:26:22;1.40;;;0.90;;
9485;SDS011;4781;48.776;9.200;2023-10-19T10:29:10;1.52;;;0.88;;
9485;SDS011;4781;48.776;9.200;2023-10-19T10:31:49;2.47;;;1.42;;
9485;SDS011;4781;48.776;9.200;2023-10-19T10:37:10;1.98;;;0.90;;
9485;SDS011;4781;48.776;9.200;2023-10-19T10:39:42;1.12;;;0.80;;
9485;SDS011;4781;48.776;9.200;2023-10-19T10:42:11;1.37;;;0.90;;
9485;SDS011;4781;48.776;9.200;2023-10-19T10:44:49;2.37;;;1.00;;
9485;SDS011;4781;48.776;9.200;2023-10-19T10:47:20;1.62;;;1.00;;
9485;SDS011;4781;48.776;9.200;2023-10-19T10:49:54;2.02;;;1.02;;
9485;SDS011;4781;48.776;9.200;2023-10-19T10:52:28;2.60;;;1.20;;
9485;SDS011;4781;48.776;9.200;2023-10-19T10:57:38;2.25;;;1.10;;
9485;SDS011;4781;48.776;9.200;2023-10-19T11:00:11;2.40;;;1.05;;
9485;SDS011;4781;48.776;9.200;2023-10-19T11:02:42;2.00;;;0.98;;
9485;SDS011;4781;48.776;9.200;2023-10-19T11:05:13;2.02;;;1.10;;
9485;SDS011;4781;48.776;9.200;2023-10-19T11:08:05;2.15;;;1.10;;
9485;SDS011;4781;48.776;9.200;2023-10-19T11:10:42;1.67;;;0.80;;
9485;SDS011;4781;48.776;9.200;2023-10-19T11:13:15;1.65;;;0.82;;
9485;SDS011;4781;48.776;9.200;2023-10-19T11:15:50;1.75;;;0.90;;
9485;SDS011;4781;48.776;9.200;2023-10-19T11:21:15;2.05;;;1.00;;
9485;SDS011;4781;48.776;9.200;2023-10-19T11:23:47;1.47;;;0.80;;
9485;SDS011;4781;48.776;9.200;2023-10-19T11:26:20;1.77;;;0.65;;
9485;SDS011;4781;48.776;9.200;2023-10-19T11:29:02;2.42;;;0.88;;
9485;SDS011;4781;48.776;9.200;2023-10-19T11:31:30;2.10;;;1.17;;
9485;SDS011;4781;48.776;9.200;2023-10-19T11:34:05;1.35;;;0.70;;
9485;SDS011;4781;48.776;9.200;2023-10-19T11:36:35;1.90;;;0.82;;
9485;SDS011;4781;48.776;9.200;2023-10-19T11:39:04;2.00;;;0.95;;
9485;SDS011;4781;48.776;9.200;2023-10-19T11:41:34;1.57;;;0.80;;
9485;SDS011;4781;48.776;9.200;2023-10-19T11:44:03;1.15;;;0.65;;
9485;SDS011;4781;48.776;9.200;2023-10-19T11:46:31;1.50;;;0.90;;
9485;SDS011;4781;48.776;9.200;2023-10-19T11:48:59;1.20;;;0.60;;
9485;SDS011;4781;48.776;9.200;2023-10-19T11:51:29;1.85;;;1.07;;
9485;SDS011;4781;48.776;9.200;2023-10-19T11:53:57;3.33;;;0.70;;
9485;SDS011;4781;48.776;9.200;2023-10-19T11:56:26;1.67;;;0.80;;
9485;SDS011;4781;48.776;9.200;2023-10-19T11:58:55;1.25;;;0.70;;
9485;SDS011;4781;48.776;9.200;2023-10-19T12:01:23;0.80;;;0.60;;
9485;SDS011;4781;48.776;9.200;2023-10-19T12:03:52;1.85;;;0.70;;
9485;SDS011;4781;48.776;9.200;2023-10-19T12:06:21;1.87;;;0.60;;
9485;SDS011;4781;48.776;9.200;2023-10-19T12:08:49;1.55;;;0.85;;
9485;SDS011;4781;48.776;9.200;2023-10-19T12:11:18;2.10;;;1.00;;
9485;SDS011;4781;48.776;9.200;2023-10-19T12:13:47;2.77;;;1.20;;
9485;SDS011;4781;48.776;9.200;2023-10-19T12:16:16;2.08;;;1.17;;
9485;SDS011;4781;48.776;9.200;2023-10-19T12:18:46;3.02;;;1.00;;
9485;SDS011;4781;48.776;9.200;2023-10-19T12:21:15;2.60;;;1.07;;
9485;SDS011;4781;48.776;9.200;2023-10-19T12:23:44;1.85;;;1.07;;
9485;SDS011;4781;48.776;9.200;2023-10-19T12:26:16;3.42;;;1.00;;
9485;SDS011;4781;48.776;9.200;2023-10-19T12:28:45;3.42;;;1.02;;
9485;SDS011;4781;48.776;9.200;2023-10-19T12:31:14;1.67;;;0.95;;
9485;SDS011;4781;48.776;9.200;2023-10-19T12:33:44;3.30;;;1.55;;
9485;SDS011;4781;48.776;9.200;2023-10-19T12:36:13;3.95;;;0.95;;
9485;SDS011;4781;48.776;9.200;2023-10-19T12:38:53;3.33;;;1.67;;
9485;SDS011;4781;48.776;9.200;2023-10-19T12:41:23;5.42;;;1.87;;
9485;SDS011;4781;48.776;9.200;2023-10-19T12:43:53;2.67;;;1.60;;
9485;SDS011;4781;48.776;9.200;2023-10-19T12:46:27;2.37;;;1.30;;
9485;SDS011;4781;48.776;9.200;2023-10-19T12:48:56;3.65;;;1.90;;
9485;SDS011;4781;48.776;9.200;2023-10-19T12:51:24;3.70;;;1.90;;
9485;SDS011;4781;48.776;9.200;2023-10-19T12:53:53;2.83;;;1.60;;
9485;SDS011;4781;48.776;9.200;2023-10-19T12:56:22;4.10;;;1.52;;
9485;SDS011;4781;48.776;9.200;2023-10-19T12:58:50;3.02;;;1.67;;
9485;SDS011;4781;48.776;9.200;2023-10-19T13:01:20;3.02;;;1.57;;
9485;SDS011;4781;48.776;9.200;2023-10-19T13:03:48;7.15;;;1.50;;
9485;SDS011;4781;48.776;9.200;2023-10-19T13:06:17;6.47;;;1.47;;
9485;SDS011;4781;48.776;9.200;2023-10-19T13:08:46;2.65;;;1.50;;
9485;SDS011;4781;48.776;9.200;2023-10-19T13:11:14;2.45;;;1.45;;
9485;SDS011;4781;48.776;9.200;2023-10-19T13:13:44;2.75;;;1.77;;
9485;SDS011;4781;48.776;9.200;2023-10-19T13:16:14;3.12;;;1.37;;
9485;SDS011;4781;48.776;9.200;2023-10-19T13:18:43;3.42;;;1.70;;
9485;SDS011;4781;48.776;9.200;2023-10-19T13:21:11;3.25;;;1.67;;
9485;SDS011;4781;48.776;9.200;2023-10-19T13:23:42;2.30;;;1.20;;
9485;SDS011;4781;48.776;9.200;2023-10-19T13:26:11;2.67;;;1.40;;
9485;SDS011;4781;48.776;9.200;2023-10-19T13:28:41;3.22;;;1.75;;
9485;SDS011;4781;48.776;9.200;2023-10-19T13:31:10;2.80;;;1.40;;
9485;SDS011;4781;48.776;9.200;2023-10-19T13:33:43;4.28;;;1.92;;
9485;SDS011;4781;48.776;9.200;2023-10-19T13:36:13;2.92;;;1.50;;
9485;SDS011;4781;48.776;9.200;2023-10-19T13:38:42;4.72;;;1.90;;
9485;SDS011;4781;48.776;9.200;2023-10-19T13:41:11;4.67;;;1.60;;
9485;SDS011;4781;48.776;9.200;2023-10-19T13:43:41;2.60;;;1.60;;
9485;SDS011;4781;48.776;9.200;2023-10-19T13:46:10;3.67;;;1.72;;
9485;SDS011;4781;48.776;9.200;2023-10-19T13:48:38;3.40;;;1.50;;
9485;SDS011;4781;48.776;9.200;2023-10-19T13:51:07;3.45;;;1.87;;
9485;SDS011;4781;48.776;9.200;2023-10-19T13:53:41;5.65;;;1.60;;
9485;SDS011;4781;48.776;9.200;2023-10-19T13:56:11;2.70;;;1.50;;
9485;SDS011;4781;48.776;9.200;2023-10-19T13:58:43;3.33;;;1.52;;
9485;SDS011;4781;48.776;9.200;2023-10-19T14:01:12;6.53;;;2.67;;
9485;SDS011;4781;48.776;9.200;2023-10-19T14:03:41;4.45;;;1.82;;
9485;SDS011;4781;48.776;9.200;2023-10-19T14:06:13;3.02;;;1.70;;
9485;SDS011;4781;48.776;9.200;2023-10-19T14:08:42;3.08;;;1.50;;
9485;SDS011;4781;48.776;9.200;2023-10-19T14:11:11;2.67;;;1.30;;
9485;SDS011;4781;48.776;9.200;2023-10-19T14:13:40;3.98;;;1.80;;
9485;SDS011;4781;48.776;9.200;2023-10-19T14:16:08;3.08;;;1.50;;
9485;SDS011;4781;48.776;9.200;2023-10-19T14:18:37;3.40;;;1.40;;
9485;SDS011;4781;48.776;9.200;2023-10-19T14:21:15;3.52;;;1.70;;
9485;SDS011;4781;48.776;9.200;2023-10-19T14:23:46;4.28;;;1.70;;
9485;SDS011;4781;48.776;9.200;2023-10-19T14:26:14;3.58;;;1.20;;
9485;SDS011;4781;48.776;9.200;2023-10-19T14:28:43;2.95;;;1.60;;
9485;SDS011;4781;48.776;9.200;2023-10-19T14:31:11;3.67;;;1.60;;
9485;SDS011;4781;48.776;9.200;2023-10-19T14:33:40;5.90;;;1.82;;
9485;SDS011;4781;48.776;9.200;2023-10-19T14:36:08;3.37;;;1.60;;
9485;SDS011;4781;48.776;9.200;2023-10-19T14:38:38;2.72;;;1.50;;
9485;SDS011;4781;48.776;9.200;2023-10-19T14:41:08;4.17;;;1.55;;
9485;SDS011;4781;48.776;9.200;2023-10-19T14:43:36;4.35;;;1.45;;
9485;SDS011;4781;48.776;9.200;2023-10-19T14:46:05;3.90;;;1.72;;
9485;SDS011;4781;48.776;9.200;2023-10-19T14:48:34;2.67;;;1.25;;
9485;SDS011;4781;48.776;9.200;2023-10-19T14:51:02;3.50;;;1.45;;
9485;SDS011;4781;48.776;9.200;2023-10-19T14:53:32;3.02;;;1.30;;
9485;SDS011;4781;48.776;9.200;2023-10-19T14:56:00;2.92;;;1.80;;
9485;SDS011;4781;48.776;9.200;2023-10-19T14:58:29;3.55;;;1.50;;
9485;SDS011;4781;48.776;9.200;2023-10-19T15:00:57;5.95;;;1.67;;
9485;SDS011;4781;48.776;9.200;2023-10-19T15:03:25;6.75;;;2.02;;
9485;SDS011;4781;48.776;9.200;2023-10-19T15:05:55;2.83;;;1.62;;
9485;SDS011;4781;48.776;9.200;2023-10-19T15:08:25;3.55;;;1.65;;
9485;SDS011;4781;48.776;9.200;2023-10-19T15:10:55;4.45;;;1.75;;
9485;SDS011;4781;48.776;9.200;2023-10-19T15:13:23;3.72;;;1.60;;
9485;SDS011;4781;48.776;9.200;2023-10-19T15:15:52;3.22;;;1.67;;
9485;SDS011;4781;48.776;9.200;2023-10-19T15:18:22;3.75;;;1.65;;
9485;SDS011;4781;48.776;9.200;2023-10-19T15:20:50;4.00;;;1.60;;
9485;SDS011;4781;48.776;9.200;2023-10-19T15:23:18;3.10;;;1.82;;
9485;SDS011;4781;48.776;9.200;2023-10-19T15:25:48;2.62;;;1.40;;
9485;SDS011;4781;48.776;9.200;2023-10-19T15:28:17;3.85;;;1.60;;
9485;SDS011;4781;48.776;9.200;2023-10-19T15:30:45;3.40;;;1.67;;
9485;SDS011;4781;48.776;9.200;2023-10-19T15:33:14;1.52;;;1.07;;
9485;SDS011;4781;48.776;9.200;2023-10-19T15:35:47;2.40;;;1.40;;
9485;SDS011;4781;48.776;9.200;2023-10-19T15:38:17;2.15;;;1.25;;
9485;SDS011;4781;48.776;9.200;2023-10-19T15:40:48;2.95;;;1.50;;
9485;SDS011;4781;48.776;9.200;2023-10-19T15:43:16;3.62;;;1.62;;
9485;SDS011;4781;48.776;9.200;2023-10-19T15:45:45;3.37;;;1.62;;
9485;SDS011;4781;48.776;9.200;2023-10-19T15:48:15;2.98;;;1.35;;
9485;SDS011;4781;48.776;9.200;2023-10-19T15:50:44;3.37;;;1.50;;
9485;SDS011;4781;48.776;9.200;2023-10-19T15:53:13;3.52;;;1.65;;